Time;durP1;ratioP1;P1;durP2;ratioP2;P2;SDS_P1;SDS_P2;PMS_P1;PMS_P2;Temp;Humidity;BMP_temperature;BMP_pressure;BME280_temperature;BME280_humidity;BME280_pressure;Samples;Min_cycle;Max_cycle;Signal;HPM_P1;HPM_P2
2023/07/01 00:00:42;;;;;;;0.60;0.60;;;;;;;20.98;100.00;97724.25;5153072;27;20116;-79
2023/07/01 00:03:30;;;;;;;0.47;0.47;;;;;;;20.48;100.00;97708.84;5151721;27;20512;-79
2023/07/01 00:06:15;;;;;;;0.60;0.60;;;;;;;20.89;100.00;97726.81;5151291;27;20042;-78
2023/07/01 00:08:59;;;;;;;1.30;0.60;;;;;;;21.01;100.00;97733.53;5152126;27;20042;-79
2023/07/01 00:11:42;;;;;;;0.57;0.57;;;;;;;20.74;100.00;97730.53;5151484;27;20510;-78
2023/07/01 00:14:26;;;;;;;0.60;0.60;;;;;;;20.76;100.00;97733.69;5150705;27;20034;-78
2023/07/01 00:17:12;;;;;;;0.70;0.70;;;;;;;21.06;100.00;97725.44;5152036;27;20044;-78
2023/07/01 00:19:56;;;;;;;0.60;0.60;;;;;;;21.14;100.00;97729.31;5151876;27;20053;-79
2023/07/01 00:22:40;;;;;;;0.82;0.82;;;;;;;20.59;100.00;97728.91;5151200;27;20098;-78
2023/07/01 00:25:24;;;;;;;0.70;0.70;;;;;;;20.65;100.00;97724.28;5136468;27;20460;-78
2023/07/01 00:28:08;;;;;;;0.93;0.85;;;;;;;20.48;100.00;97728.28;5151117;27;20087;-78
2023/07/01 00:30:52;;;;;;;1.58;0.90;;;;;;;20.72;100.00;97730.00;5150046;27;20029;-78
2023/07/01 00:33:36;;;;;;;1.75;1.33;;;;;;;20.64;100.00;97738.69;5135407;27;20396;-79
2023/07/01 00:36:20;;;;;;;1.33;1.20;;;;;;;20.71;100.00;97743.66;5150949;27;20044;-79
2023/07/01 00:39:04;;;;;;;1.10;1.10;;;;;;;20.81;100.00;97746.16;5135720;27;20166;-78
2023/07/01 00:41:53;;;;;;;1.20;1.10;;;;;;;20.91;100.00;97735.31;5150993;27;20067;-79
2023/07/01 00:44:37;;;;;;;2.15;1.65;;;;;;;20.54;100.00;97729.00;5135959;27;20042;-78
2023/07/01 00:47:21;;;;;;;3.50;1.80;;;;;;;20.39;100.00;97728.16;5150882;27;20033;-79
2023/07/01 00:50:10;;;;;;;2.35;2.15;;;;;;;20.59;100.00;97734.22;5136361;27;20081;-79
2023/07/01 00:52:54;;;;;;;3.33;2.20;;;;;;;20.35;100.00;97724.50;5135075;27;20125;-79
2023/07/01 00:55:39;;;;;;;3.97;2.63;;;;;;;20.29;100.00;97725.66;5152021;27;20065;-79
2023/07/01 00:58:23;;;;;;;2.88;2.50;;;;;;;20.63;100.00;97737.88;5135397;27;20498;-79
2023/07/01 01:01:15;;;;;;;4.63;2.78;;;;;;;20.73;100.00;97728.16;5151637;27;20103;-79
2023/07/01 01:04:14;;;;;;;3.35;3.03;;;;;;;20.45;100.00;97730.75;5135686;27;20054;-79
2023/07/01 01:07:06;;;;;;;3.22;2.88;;;;;;;20.72;100.00;97723.91;5151436;27;20103;-80
2023/07/01 01:10:08;;;;;;;4.95;3.15;;;;;;;20.48;100.00;97730.16;5149979;27;20037;-79
2023/07/01 01:12:56;;;;;;;4.97;3.20;;;;;;;20.57;100.00;97728.41;5151483;27;20403;-80
2023/07/01 01:15:41;;;;;;;5.18;3.42;;;;;;;20.78;100.00;97730.72;5149842;27;20095;-79
2023/07/01 01:18:30;;;;;;;7.28;3.80;;;;;;;20.53;100.00;97732.75;5151841;27;20403;-78
2023/07/01 01:21:16;;;;;;;4.80;3.20;;;;;;;20.76;100.00;97727.56;5149871;27;20042;-78
2023/07/01 01:24:05;;;;;;;3.78;2.85;;;;;;;20.68;100.00;97724.50;5150951;27;20127;-78
2023/07/01 01:26:53;;;;;;;5.35;2.85;;;;;;;20.72;100.00;97723.91;5147895;27;20038;-79
2023/07/01 01:29:37;;;;;;;5.07;3.03;;;;;;;20.62;100.00;97720.31;5150672;27;20162;-79
2023/07/01 01:32:22;;;;;;;4.93;3.03;;;;;;;20.74;100.00;97713.72;5150583;27;20038;-78
2023/07/01 01:35:07;;;;;;;4.65;2.88;;;;;;;20.90;100.00;97725.72;5150922;27;20087;-78
2023/07/01 01:37:57;;;;;;;4.30;3.20;;;;;;;20.91;100.00;97711.31;5150535;27;20038;-79
2023/07/01 01:40:51;;;;;;;3.08;2.78;;;;;;;20.36;100.00;97712.75;5148343;27;20162;-78
2023/07/01 01:43:46;;;;;;;3.58;2.97;;;;;;;21.09;100.00;97722.19;5148235;27;20041;-79
2023/07/01 01:46:34;;;;;;;4.63;3.25;;;;;;;21.10;100.00;97713.09;5149828;27;20073;-78
2023/07/01 01:49:19;;;;;;;3.75;2.90;;;;;;;21.36;100.00;97715.25;5151020;27;20045;-77
2023/07/01 01:52:04;;;;;;;3.90;2.95;;;;;;;21.04;100.00;97709.72;5149044;27;20123;-79
2023/07/01 01:54:51;;;;;;;3.10;2.80;;;;;;;20.87;100.00;97718.31;5131928;27;20174;-78
2023/07/01 01:57:35;;;;;;;3.30;2.92;;;;;;;20.94;100.00;97715.28;5149888;27;20088;-78
2023/07/01 02:00:20;;;;;;;2.72;2.53;;;;;;;20.74;100.00;97717.19;5148741;27;20045;-78
2023/07/01 02:03:04;;;;;;;3.55;2.50;;;;;;;20.73;100.00;97717.47;5150674;27;20103;-78
2023/07/01 02:05:48;;;;;;;5.00;2.83;;;;;;;20.37;100.00;97724.22;5133879;27;20122;-77
2023/07/01 02:08:32;;;;;;;4.53;3.45;;;;;;;20.53;100.00;97716.75;5134276;27;20038;-78
2023/07/01 02:11:16;;;;;;;3.60;2.53;;;;;;;20.71;100.00;97724.97;5149278;27;20053;-78
2023/07/01 02:14:00;;;;;;;3.85;2.60;;;;;;;20.87;100.00;97722.84;5133624;27;20057;-79
2023/07/01 02:16:44;;;;;;;3.35;2.55;;;;;;;20.29;100.00;97723.00;5133776;27;20046;-79
2023/07/01 02:19:28;;;;;;;3.90;2.50;;;;;;;20.33;100.00;97725.84;5148856;27;20095;-79
2023/07/01 02:22:12;;;;;;;5.20;2.85;;;;;;;20.56;100.00;97732.16;5150171;27;20589;-79
2023/07/01 02:24:56;;;;;;;5.28;2.30;;;;;;;20.43;100.00;97722.22;5132761;27;20086;-79
2023/07/01 02:27:41;;;;;;;6.53;2.85;;;;;;;20.33;100.00;97724.00;5135054;27;20050;-78
2023/07/01 02:30:25;;;;;;;3.72;2.78;;;;;;;20.19;100.00;97729.28;5150333;27;20090;-79
2023/07/01 02:33:09;;;;;;;5.50;2.90;;;;;;;20.24;100.00;97731.06;5137043;27;20069;-79
2023/07/01 02:35:53;;;;;;;3.45;2.50;;;;;;;20.07;100.00;97729.72;5138087;27;20037;-78
2023/07/01 02:38:37;;;;;;;2.28;2.08;;;;;;;19.87;100.00;97724.66;5137743;27;20075;-79
2023/07/01 02:41:22;;;;;;;3.90;2.30;;;;;;;20.09;100.00;97724.09;5154105;27;20818;-79
2023/07/01 02:44:06;;;;;;;4.32;2.63;;;;;;;19.98;100.00;97728.78;5137776;27;20197;-80
2023/07/01 02:46:50;;;;;;;5.10;2.50;;;;;;;20.23;100.00;97740.13;5152237;27;20161;-79
2023/07/01 02:49:34;;;;;;;4.63;3.05;;;;;;;19.90;100.00;97735.53;5153519;27;20117;-80
2023/07/01 02:52:18;;;;;;;6.55;3.17;;;;;;;19.49;100.00;97733.41;5138825;27;20056;-79
2023/07/01 02:55:02;;;;;;;4.50;3.10;;;;;;;19.78;100.00;97730.63;5153242;27;20041;-79
2023/07/01 02:57:46;;;;;;;5.28;3.50;;;;;;;19.67;100.00;97729.19;5138288;27;20045;-79
2023/07/01 03:00:30;;;;;;;4.63;3.17;;;;;;;19.27;100.00;97738.19;5154252;27;20101;-78
2023/07/01 03:03:14;;;;;;;8.30;3.35;;;;;;;19.20;100.00;97737.72;5152879;27;20042;-79
2023/07/01 03:05:58;;;;;;;4.53;2.78;;;;;;;19.41;100.00;97727.66;5137582;27;20559;-78
2023/07/01 03:08:42;;;;;;;5.97;2.78;;;;;;;19.27;100.00;97729.41;5153272;27;20042;-78
2023/07/01 03:11:26;;;;;;;5.07;2.88;;;;;;;18.79;100.00;97728.28;5137334;27;20041;-78
2023/07/01 03:14:12;;;;;;;7.53;2.83;;;;;;;19.06;100.00;97737.63;5152545;27;20029;-78
2023/07/01 03:16:56;;;;;;;6.65;3.05;;;;;;;19.27;100.00;97732.88;5152734;27;20403;-78
2023/07/01 03:19:41;;;;;;;;;;;;;;;19.04;100.00;97738.97;5153386;27;20041;-79
2023/07/01 03:22:25;;;;;;;5.78;2.50;;;;;;;19.21;100.00;97739.31;5136997;27;19922;-77
2023/07/01 03:25:10;;;;;;;4.10;2.40;;;;;;;19.05;100.00;97740.53;5136655;27;20502;-78
2023/07/01 03:27:54;;;;;;;7.10;2.20;;;;;;;19.14;100.00;97738.88;5152541;27;20099;-78
2023/07/01 03:30:38;;;;;;;3.40;2.33;;;;;;;19.20;100.00;97744.94;5136640;27;20057;-78
2023/07/01 03:33:22;;;;;;;4.57;2.20;;;;;;;19.30;100.00;97736.81;5136626;27;20073;-78
2023/07/01 03:36:06;;;;;;;7.43;2.13;;;;;;;19.29;100.00;97739.78;5136198;27;20045;-79
2023/07/01 03:38:51;;;;;;;4.35;1.80;;;;;;;19.44;100.00;97741.44;5150964;27;20113;-79
2023/07/01 03:41:35;;;;;;;3.33;2.10;;;;;;;19.26;100.00;97741.94;5152698;27;20440;-78
2023/07/01 03:44:19;;;;;;;3.58;1.70;;;;;;;18.95;100.00;97736.91;5149933;27;20520;-79
2023/07/01 03:47:03;;;;;;;6.07;1.80;;;;;;;18.70;100.00;97736.06;5136015;27;20079;-79
2023/07/01 03:49:47;;;;;;;1.98;1.60;;;;;;;19.05;100.00;97749.31;5136597;27;20112;-79
2023/07/01 03:52:31;;;;;;;6.15;1.60;;;;;;;19.21;100.00;97744.63;5151302;27;20054;-79
2023/07/01 03:55:15;;;;;;;4.00;1.45;;;;;;;19.06;100.00;97745.59;5137411;27;20062;-79
2023/07/01 03:58:00;;;;;;;6.03;2.15;;;;;;;19.14;100.00;97733.53;5150868;27;20539;-78
2023/07/01 04:00:44;;;;;;;2.92;1.90;;;;;;;19.29;100.00;97734.44;5137172;27;20057;-78
2023/07/01 04:03:28;;;;;;;4.30;2.35;;;;;;;19.36;100.00;97745.53;5135740;27;20536;-79
2023/07/01 04:06:12;;;;;;;6.93;2.53;;;;;;;19.27;100.00;97740.03;5152996;27;20066;-79
2023/07/01 04:08:56;;;;;;;2.53;1.92;;;;;;;19.66;100.00;97744.38;5137140;27;20051;-78
2023/07/01 04:11:40;;;;;;;3.88;2.10;;;;;;;19.57;100.00;97731.97;5151256;27;20062;-79
2023/07/01 04:14:24;;;;;;;3.17;1.70;;;;;;;19.30;100.00;97728.06;5150816;27;20507;-78
2023/07/01 04:17:08;;;;;;;5.45;1.77;;;;;;;19.38;100.00;97738.88;5152401;27;20064;-78
2023/07/01 04:19:52;;;;;;;3.60;1.83;;;;;;;19.14;100.00;97749.50;5151836;27;20131;-78
2023/07/01 04:22:37;;;;;;;4.43;1.88;;;;;;;19.59;100.00;97743.94;5136496;27;20122;-78
2023/07/01 04:25:21;;;;;;;5.03;1.80;;;;;;;19.50;100.00;97746.44;5135958;27;20080;-79
2023/07/01 04:28:08;;;;;;;6.85;1.98;;;;;;;19.61;100.00;97746.28;5150545;27;20509;-78
2023/07/01 04:30:52;;;;;;;5.60;2.03;;;;;;;19.97;100.00;97748.50;5152290;27;20388;-78
2023/07/01 04:33:35;;;;;;;4.90;1.67;;;;;;;19.41;100.00;97750.78;5151605;27;20065;-77
2023/07/01 04:36:20;;;;;;;4.85;1.70;;;;;;;19.50;100.00;97758.94;5150499;27;20075;-78
2023/07/01 04:39:04;;;;;;;5.28;1.92;;;;;;;19.78;100.00;97757.25;5150361;27;20045;-78
2023/07/01 04:41:48;;;;;;;4.40;1.70;;;;;;;19.64;100.00;97743.84;5150755;27;20063;-77
2023/07/01 04:44:33;;;;;;;5.07;1.90;;;;;;;19.57;100.00;97761.25;5150839;27;20040;-78
2023/07/01 04:47:17;;;;;;;5.43;1.80;;;;;;;19.57;100.00;97747.94;5135870;27;20046;-79
2023/07/01 04:50:01;;;;;;;4.53;1.77;;;;;;;19.78;100.00;97751.94;5148483;27;20506;-79
2023/07/01 04:52:45;;;;;;;3.63;1.75;;;;;;;19.96;100.00;97753.06;5149690;27;20474;-78
2023/07/01 04:55:29;;;;;;;5.60;2.35;;;;;;;19.98;100.00;97758.88;5151116;27;20083;-78
2023/07/01 04:58:13;;;;;;;5.55;1.80;;;;;;;19.90;100.00;97756.03;5151335;27;20038;-78
2023/07/01 05:00:57;;;;;;;4.35;1.90;;;;;;;19.88;100.00;97766.97;5148716;27;20050;-79
2023/07/01 05:03:41;;;;;;;3.85;2.03;;;;;;;20.29;100.00;97770.97;5134371;27;20046;-78
2023/07/01 05:06:25;;;;;;;4.35;1.60;;;;;;;19.82;100.00;97763.56;5150965;27;20050;-78
2023/07/01 05:09:09;;;;;;;5.63;1.90;;;;;;;20.02;100.00;97767.06;5150706;27;20523;-79
2023/07/01 05:11:53;;;;;;;4.47;1.88;;;;;;;19.61;100.00;97772.91;5135927;27;20072;-78
2023/07/01 05:14:37;;;;;;;4.22;1.80;;;;;;;19.84;100.00;97773.94;5151352;27;20517;-78
2023/07/01 05:17:21;;;;;;;4.47;2.13;;;;;;;19.86;100.00;97769.13;5151213;27;20041;-78
2023/07/01 05:20:08;;;;;;;5.63;1.90;;;;;;;20.20;100.00;97767.34;5151244;27;20050;-78
2023/07/01 05:22:52;;;;;;;5.72;1.70;;;;;;;20.32;100.00;97770.38;5150645;27;20042;-78
2023/07/01 05:25:36;;;;;;;8.38;2.25;;;;;;;20.11;100.00;97769.88;5135723;27;20145;-78
2023/07/01 05:28:20;;;;;;;3.80;1.60;;;;;;;20.32;100.00;97775.72;5135437;27;20095;-78
2023/07/01 05:31:04;;;;;;;9.60;1.92;;;;;;;20.36;100.00;97766.03;5150744;27;20046;-79
2023/07/01 05:33:48;;;;;;;3.38;1.88;;;;;;;20.31;100.00;97773.31;5151176;27;20052;-80
2023/07/01 05:36:32;;;;;;;3.25;1.40;;;;;;;20.34;100.00;97772.75;5151084;27;20041;-79
2023/07/01 05:39:17;;;;;;;2.90;1.52;;;;;;;20.35;100.00;97769.78;5149542;27;20538;-78
2023/07/01 05:42:01;;;;;;;3.72;1.70;;;;;;;19.88;100.00;97779.50;5151028;27;20179;-78
2023/07/01 05:44:44;;;;;;;6.50;1.80;;;;;;;19.77;100.00;97776.97;5135085;27;20389;-78
2023/07/01 05:47:28;;;;;;;5.97;1.80;;;;;;;19.91;100.00;97776.28;5134996;27;20513;-78
2023/07/01 05:50:12;;;;;;;2.92;1.50;;;;;;;20.02;100.00;97772.41;5148894;27;20042;-79
2023/07/01 05:52:56;;;;;;;5.35;1.95;;;;;;;19.91;100.00;97782.41;5150264;27;20041;-79
2023/07/01 05:55:40;;;;;;;2.55;1.65;;;;;;;20.22;100.00;97781.19;5150205;27;20045;-79
2023/07/01 05:58:24;;;;;;;6.90;1.75;;;;;;;20.27;100.00;97775.78;5144780;27;20167;-79
2023/07/01 06:01:09;;;;;;;2.83;1.35;;;;;;;19.94;100.00;97781.03;5145794;27;20072;-81
2023/07/01 06:03:53;;;;;;;4.75;1.77;;;;;;;19.98;100.00;97769.53;5149889;27;20111;-83
2023/07/01 06:06:39;;;;;;;5.78;1.88;;;;;;;20.17;100.00;97779.41;5150363;27;20092;-81
2023/07/01 06:09:23;;;;;;;4.90;1.65;;;;;;;20.31;100.00;97783.97;5153301;27;20091;-82
2023/07/01 06:12:07;;;;;;;9.07;2.45;;;;;;;20.57;100.00;97779.06;5154381;27;20452;-81
2023/07/01 06:14:51;;;;;;;3.88;1.40;;;;;;;20.55;100.00;97781.22;5137904;27;20160;-82
2023/07/01 06:17:35;;;;;;;4.65;1.75;;;;;;;20.80;99.09;97779.22;5154322;27;20064;-82
2023/07/01 06:20:19;;;;;;;3.83;1.27;;;;;;;20.68;98.80;97769.81;5138837;27;20480;-79
2023/07/01 06:23:03;;;;;;;3.85;1.75;;;;;;;20.21;99.54;97785.72;5154577;27;20052;-80
2023/07/01 06:25:47;;;;;;;4.13;1.40;;;;;;;20.44;100.00;97783.25;5138200;27;20388;-78
2023/07/01 06:28:32;;;;;;;3.08;1.42;;;;;;;20.36;100.00;97787.38;5152143;27;20042;-78
2023/07/01 06:31:16;;;;;;;3.17;1.40;;;;;;;20.31;100.00;97790.13;5138485;27;20071;-79
2023/07/01 06:34:00;;;;;;;3.25;1.30;;;;;;;20.50;100.00;97786.63;5152491;27;20123;-78
2023/07/01 06:36:44;;;;;;;2.03;1.20;;;;;;;20.68;100.00;97801.00;5136406;27;20096;-81
2023/07/01 06:39:28;;;;;;;3.38;1.23;;;;;;;19.90;100.00;97790.66;5135357;27;20177;-81
2023/07/01 06:42:12;;;;;;;2.85;1.08;;;;;;;20.47;100.00;97788.00;5137216;27;20038;-79
2023/07/01 06:44:56;;;;;;;2.78;1.17;;;;;;;20.62;100.00;97788.84;5153140;27;20068;-82
2023/07/01 06:47:40;;;;;;;1.58;1.30;;;;;;;20.45;100.00;97813.38;5135035;27;20061;-76
2023/07/01 06:50:25;;;;;;;3.28;1.20;;;;;;;20.24;100.00;97790.47;5153192;27;20400;-75
2023/07/01 06:53:09;;;;;;;2.60;1.17;;;;;;;20.36;100.00;97798.03;5154210;27;20103;-81
2023/07/01 06:55:53;;;;;;;4.55;1.60;;;;;;;20.46;100.00;97791.75;5152226;27;20121;-81
2023/07/01 06:58:37;;;;;;;3.67;1.60;;;;;;;19.92;100.00;97804.50;5130466;27;20073;-77
2023/07/01 07:01:21;;;;;;;3.75;1.70;;;;;;;19.63;100.00;97798.16;5149773;27;20053;-77
2023/07/01 07:04:06;;;;;;;2.15;1.50;;;;;;;20.04;100.00;97798.75;5151837;27;20118;-77
2023/07/01 07:06:50;;;;;;;5.07;2.13;;;;;;;20.29;100.00;97807.47;5152312;27;20050;-77
2023/07/01 07:09:34;;;;;;;4.70;1.75;;;;;;;20.29;100.00;97808.25;5150665;27;20091;-76
2023/07/01 07:12:18;;;;;;;3.33;1.75;;;;;;;19.63;100.00;97805.34;5152084;27;20576;-76
2023/07/01 07:15:04;;;;;;;4.45;1.70;;;;;;;20.37;100.00;97799.59;5135539;27;21276;-77
2023/07/01 07:17:48;;;;;;;3.85;1.65;;;;;;;20.44;100.00;97806.44;5152201;27;20046;-76
2023/07/01 07:20:32;;;;;;;5.07;1.65;;;;;;;20.33;100.00;97803.94;5135453;27;20037;-78
2023/07/01 07:23:16;;;;;;;3.88;1.20;;;;;;;20.76;100.00;97802.22;5151893;27;20041;-79
2023/07/01 07:26:00;;;;;;;5.43;1.80;;;;;;;20.40;100.00;97811.56;5134934;27;20083;-79
2023/07/01 07:28:44;;;;;;;4.88;1.80;;;;;;;20.59;100.00;97800.09;5136899;27;20045;-80
2023/07/01 07:31:28;;;;;;;2.78;1.60;;;;;;;20.87;100.00;97794.88;5137947;27;20130;-83
2023/07/01 07:34:12;;;;;;;3.50;1.58;;;;;;;20.64;100.00;97802.69;5137451;27;20487;-81
2023/07/01 07:36:57;;;;;;;2.70;1.30;;;;;;;20.95;99.22;97805.66;5139431;27;20054;-83
2023/07/01 07:39:41;;;;;;;5.25;1.60;;;;;;;20.90;98.77;97803.06;5152032;27;20511;-83
2023/07/01 07:42:25;;;;;;;4.70;1.50;;;;;;;21.51;97.15;97807.56;5137304;27;20433;-82
2023/07/01 07:45:10;;;;;;;5.43;1.50;;;;;;;21.40;96.21;97814.97;5135361;27;20099;-82
2023/07/01 07:47:54;;;;;;;5.63;2.80;;;;;;;21.39;96.99;97808.88;5138023;27;20057;-86
2023/07/01 07:50:38;;;;;;;4.85;1.48;;;;;;;21.21;95.65;97807.84;5139638;27;20499;-83
2023/07/01 07:53:22;;;;;;;2.08;1.13;;;;;;;21.79;93.21;97797.69;5136751;27;20175;-85
2023/07/01 07:56:06;;;;;;;3.00;1.38;;;;;;;21.79;91.89;97816.38;5140929;27;20046;-84
2023/07/01 07:58:50;;;;;;;2.75;1.58;;;;;;;21.65;91.94;97808.38;5156551;27;20090;-85
2023/07/01 08:01:34;;;;;;;4.32;1.73;;;;;;;21.73;92.04;97803.47;5140497;27;20057;-84
2023/07/01 08:04:18;;;;;;;5.25;1.42;;;;;;;21.44;91.34;97797.31;5155286;27;20045;-85
2023/07/01 08:07:03;;;;;;;3.75;1.50;;;;;;;21.76;90.57;97798.28;5139726;27;20037;-84
2023/07/01 08:09:47;;;;;;;7.35;1.80;;;;;;;21.78;90.27;97798.78;5140274;27;20045;-84
2023/07/01 08:12:31;;;;;;;3.70;1.65;;;;;;;22.27;88.08;97800.97;5140130;27;20127;-84
2023/07/01 08:15:15;;;;;;;4.65;1.70;;;;;;;21.78;87.92;97812.13;5137633;27;20569;-85
2023/07/01 08:17:59;;;;;;;4.95;1.40;;;;;;;22.26;87.01;97810.06;5152623;27;20129;-79
2023/07/01 08:20:44;;;;;;;6.18;1.60;;;;;;;22.82;86.78;97816.00;5153184;27;20541;-80
2023/07/01 08:23:28;;;;;;;4.65;1.38;;;;;;;22.29;85.62;97820.16;5150218;27;20051;-81
2023/07/01 08:26:12;;;;;;;4.03;1.48;;;;;;;23.31;83.95;97819.88;5151179;27;20045;-81
2023/07/01 08:28:56;;;;;;;3.35;1.40;;;;;;;23.57;82.08;97811.16;5152559;27;20041;-80
2023/07/01 08:31:41;;;;;;;5.47;1.58;;;;;;;23.66;81.55;97815.41;5135851;27;20045;-80
2023/07/01 08:34:25;;;;;;;3.05;1.60;;;;;;;23.45;80.26;97803.72;5153242;27;20063;-81
2023/07/01 08:37:09;;;;;;;4.50;1.50;;;;;;;23.99;79.53;97818.81;5137527;27;20483;-80
2023/07/01 08:39:53;;;;;;;5.60;1.88;;;;;;;23.44;80.54;97818.19;5147690;27;20396;-80
2023/07/01 08:42:45;;;;;;;5.25;1.60;;;;;;;23.44;79.08;97818.19;5151360;27;20094;-81
2023/07/01 08:45:30;;;;;;;4.45;1.63;;;;;;;23.54;79.04;97824.06;5152988;27;20045;-77
2023/07/01 08:48:15;;;;;;;3.97;1.60;;;;;;;23.45;79.55;97820.56;5151422;27;20091;-81
2023/07/01 08:51:42;;;;;;;4.57;1.95;;;;;;;24.11;78.86;97824.38;5134467;27;20095;-80
2023/07/01 08:54:26;;;;;;;7.28;2.20;;;;;;;24.31;79.47;97825.63;5114864;27;20037;-81
2023/07/01 08:57:11;;;;;;;3.65;1.65;;;;;;;23.80;79.71;97818.00;5151747;27;20075;-80
2023/07/01 08:59:55;;;;;;;4.07;1.60;;;;;;;24.50;79.20;97814.59;5150851;27;20058;-81
2023/07/01 09:02:40;;;;;;;5.43;2.20;;;;;;;23.81;78.34;97822.25;5151143;27;20046;-80
2023/07/01 09:05:24;;;;;;;6.18;2.00;;;;;;;24.68;77.07;97806.53;5150718;27;20388;-81
2023/07/01 09:08:08;;;;;;;4.75;1.70;;;;;;;24.43;75.59;97803.53;5147841;27;20090;-81
2023/07/01 09:10:52;;;;;;;5.32;1.92;;;;;;;23.71;77.92;97798.44;5151415;27;20041;-80
2023/07/01 09:13:36;;;;;;;4.78;2.03;;;;;;;23.74;78.08;97797.03;5150276;27;20075;-79
2023/07/01 09:16:33;;;;;;;4.35;2.30;;;;;;;23.06;79.92;97812.19;5150845;27;20568;-82
2023/07/01 09:19:21;;;;;;;3.70;2.45;;;;;;;21.54;85.49;97799.78;5133921;27;20152;-82
2023/07/01 09:22:08;;;;;;;3.90;2.50;;;;;;;21.39;84.78;97813.41;5134288;27;20038;-82
2023/07/01 09:24:53;;;;;;;3.67;1.70;;;;;;;22.09;81.91;97794.66;5134038;27;20041;-80
2023/07/01 09:27:47;;;;;;;3.03;1.60;;;;;;;21.87;81.82;97806.09;5144208;27;20042;-81
2023/07/01 09:30:32;;;;;;;;;;;;;;;21.78;81.88;97803.34;5150625;27;20050;-81
2023/07/01 09:33:17;;;;;;;2.97;2.35;;;;;;;22.59;80.72;97795.72;5134309;27;19929;-82
2023/07/01 09:36:02;;;;;;;3.72;1.63;;;;;;;23.03;80.75;97793.28;5149532;27;20065;-82
2023/07/01 09:38:51;;;;;;;5.70;2.55;;;;;;;22.81;82.55;97792.25;5146872;27;20097;-82
2023/07/01 09:41:35;;;;;;;6.15;2.38;;;;;;;22.58;82.20;97802.16;5149762;27;22037;-82
2023/07/01 09:44:19;;;;;;;3.78;2.67;;;;;;;22.70;82.55;97797.06;5141455;27;20033;-79
2023/07/01 09:47:05;;;;;;;5.10;2.38;;;;;;;22.92;79.82;97798.13;5155276;27;20050;-82
2023/07/01 09:49:53;;;;;;;4.50;3.28;;;;;;;21.96;81.22;97796.28;5153904;27;20214;-80
2023/07/01 09:52:37;;;;;;;6.03;2.65;;;;;;;21.29;82.27;97795.72;5151176;27;20046;-80
2023/07/01 09:55:22;;;;;;;8.23;3.35;;;;;;;21.54;81.45;97786.41;5151242;27;20060;-82
2023/07/01 09:58:06;;;;;;;6.90;3.25;;;;;;;22.42;80.31;97796.34;5153465;27;20049;-82
2023/07/01 10:00:50;;;;;;;5.15;3.55;;;;;;;22.17;80.21;97801.19;5150902;27;20436;-81
2023/07/01 10:03:35;;;;;;;4.05;2.80;;;;;;;22.07;80.20;97812.88;5155084;27;20041;-82
2023/07/01 10:06:19;;;;;;;5.03;2.60;;;;;;;22.07;81.28;97803.00;5153844;27;20072;-81
2023/07/01 10:09:03;;;;;;;4.75;3.00;;;;;;;22.27;81.12;97808.97;5152921;27;20049;-83
2023/07/01 10:11:47;;;;;;;6.95;3.35;;;;;;;21.71;80.78;97817.09;5138678;27;20045;-82
2023/07/01 10:14:34;;;;;;;4.57;3.20;;;;;;;22.09;79.60;97808.03;5152824;27;20499;-85
2023/07/01 10:17:19;;;;;;;6.07;3.15;;;;;;;22.03;79.19;97802.03;5153842;27;20113;-83
2023/07/01 10:20:23;;;;;;;6.55;3.45;;;;;;;21.80;79.60;97799.28;5154322;27;20042;-84
2023/07/01 10:23:07;;;;;;;4.30;2.95;;;;;;;21.45;79.37;97825.59;5154010;27;20049;-84
2023/07/01 10:25:51;;;;;;;3.72;2.50;;;;;;;21.99;78.97;97818.94;5139926;27;20042;-83
2023/07/01 10:28:35;;;;;;;5.50;2.90;;;;;;;21.46;78.81;97819.16;5154259;27;20050;-82
2023/07/01 10:31:19;;;;;;;4.85;2.38;;;;;;;21.16;81.17;97839.97;5138984;27;20076;-81
2023/07/01 10:34:03;;;;;;;6.28;2.30;;;;;;;21.37;81.80;97848.41;5154656;27;20049;-82
2023/07/01 10:37:13;;;;;;;7.88;2.40;;;;;;;22.07;79.90;97855.63;5153344;27;20034;-82
2023/07/01 10:39:59;;;;;;;4.43;2.38;;;;;;;22.02;79.78;97863.75;5152527;27;20117;-82
2023/07/01 10:42:43;;;;;;;5.90;2.22;;;;;;;21.83;79.78;97854.78;5153514;27;20053;-82
2023/07/01 10:45:27;;;;;;;3.20;2.10;;;;;;;21.76;80.11;97866.97;5153066;27;20042;-83
2023/07/01 10:48:13;;;;;;;5.40;2.47;;;;;;;22.30;79.59;97858.34;5150900;27;20424;-82
2023/07/01 10:51:11;;;;;;;3.28;2.05;;;;;;;21.33;79.68;97870.66;5153924;27;20380;-82
2023/07/01 10:54:03;;;;;;;5.20;2.50;;;;;;;21.62;79.14;97877.59;5155108;27;20364;-81
2023/07/01 10:57:12;;;;;;;3.47;2.20;;;;;;;21.61;79.22;97871.47;5153008;27;20065;-81
2023/07/01 11:00:34;;;;;;;2.53;2.00;;;;;;;22.00;78.02;97872.06;5149730;27;20099;-81
2023/07/01 11:03:39;;;;;;;3.45;2.20;;;;;;;21.30;78.81;97890.69;5151569;27;20069;-82
2023/07/01 11:06:24;;;;;;;4.80;1.98;;;;;;;21.72;78.53;97861.41;5154891;27;20096;-82
2023/07/01 11:09:08;;;;;;;4.82;2.10;;;;;;;21.75;78.50;97868.03;5151664;27;20123;-82
2023/07/01 11:11:54;;;;;;;3.28;2.00;;;;;;;21.53;78.35;97864.94;5153593;27;20106;-82
2023/07/01 11:14:39;;;;;;;3.38;2.03;;;;;;;21.65;79.07;97866.38;5152824;27;20091;-81
2023/07/01 11:17:23;;;;;;;4.63;2.47;;;;;;;21.43;79.38;97875.81;5152864;27;20546;-82
2023/07/01 11:20:08;;;;;;;9.32;2.40;;;;;;;21.31;79.82;97876.25;5152770;27;20114;-82
2023/07/01 11:22:52;;;;;;;2.33;1.88;;;;;;;21.27;79.98;97864.59;5152171;27;20038;-82
2023/07/01 11:25:42;;;;;;;8.02;2.13;;;;;;;21.11;80.37;97858.75;5153078;27;20065;-82
2023/07/01 11:28:34;;;;;;;4.60;2.08;;;;;;;21.37;80.78;97868.97;5152985;27;20041;-82
2023/07/01 11:31:24;;;;;;;2.50;1.90;;;;;;;21.51;78.60;97872.44;5152101;27;20073;-79
2023/07/01 11:34:10;;;;;;;4.65;2.10;;;;;;;21.54;78.60;97861.19;5151399;27;20121;-78
2023/07/01 11:36:55;;;;;;;6.00;2.85;;;;;;;21.82;77.22;97877.25;5137178;27;20050;-78
2023/07/01 11:39:44;;;;;;;2.08;1.77;;;;;;;22.40;77.04;97877.66;5136792;27;20049;-79
2023/07/01 11:42:28;;;;;;;3.05;2.20;;;;;;;22.14;75.05;97893.44;5133669;27;20088;-78
2023/07/01 11:45:13;;;;;;;3.85;2.47;;;;;;;22.23;74.18;97890.84;5129911;27;20495;-79
2023/07/01 11:47:57;;;;;;;3.22;2.40;;;;;;;22.24;73.67;97913.81;5145585;27;20499;-78
2023/07/01 11:50:53;;;;;;;4.20;2.40;;;;;;;22.86;73.25;97896.44;5135108;27;20085;-79
2023/07/01 11:53:57;;;;;;;2.53;1.90;;;;;;;23.08;72.97;97897.53;5150932;27;20076;-82
2023/07/01 11:56:46;;;;;;;3.42;1.77;;;;;;;22.85;73.23;97905.56;5152117;27;20102;-77
2023/07/01 11:59:32;;;;;;;8.10;1.88;;;;;;;23.18;73.82;97913.31;5152062;27;20049;-76
2023/07/01 12:02:26;;;;;;;2.95;2.00;;;;;;;22.79;73.49;97902.22;5151341;27;20045;-77
2023/07/01 12:05:10;;;;;;;;;;;;;;;23.75;73.14;97900.41;5134841;27;20049;-78
2023/07/01 12:07:56;;;;;;;4.68;3.38;;;;;;;23.48;72.79;97894.94;5135497;27;20011;-77
2023/07/01 12:10:41;;;;;;;8.15;4.18;;;;;;;23.10;71.99;97901.47;5133673;27;20048;-79
2023/07/01 12:13:30;;;;;;;6.18;3.80;;;;;;;23.15;72.00;97934.56;5151284;27;20071;-77
2023/07/01 12:16:14;;;;;;;7.80;3.97;;;;;;;23.60;71.23;97929.16;5148428;27;20110;-77
2023/07/01 12:19:06;;;;;;;7.05;4.10;;;;;;;23.29;70.48;97923.81;5137997;27;20042;-76
2023/07/01 12:21:53;;;;;;;5.78;4.00;;;;;;;23.75;70.82;97933.31;5145502;27;20086;-76
2023/07/01 12:24:37;;;;;;;5.15;3.65;;;;;;;23.71;69.71;97929.69;5146650;27;20474;-77
2023/07/01 12:27:21;;;;;;;7.50;4.50;;;;;;;23.49;69.03;97925.19;5148384;27;20091;-78
2023/07/01 12:30:09;;;;;;;5.68;3.83;;;;;;;23.27;69.47;97936.72;5150189;27;20156;-78
2023/07/01 12:32:53;;;;;;;3.90;3.33;;;;;;;23.04;70.21;97939.38;5151353;27;20491;-78
2023/07/01 12:35:39;;;;;;;4.72;3.28;;;;;;;23.16;70.19;97952.22;5135814;27;20041;-78
2023/07/01 12:38:24;;;;;;;4.35;3.67;;;;;;;22.85;69.79;97972.44;5135006;27;20103;-78
2023/07/01 12:41:07;;;;;;;6.28;3.38;;;;;;;23.19;70.52;97954.28;5151751;27;20495;-80
2023/07/01 12:43:52;;;;;;;4.00;3.60;;;;;;;23.12;70.48;97960.03;5150371;27;20037;-81
2023/07/01 12:46:38;;;;;;;5.43;3.38;;;;;;;23.01;71.21;97961.41;5135611;27;20115;-80
2023/07/01 12:49:22;;;;;;;6.15;3.60;;;;;;;23.08;72.93;97957.19;5149984;27;20049;-78
2023/07/01 12:52:07;;;;;;;4.43;3.30;;;;;;;24.60;71.34;97947.63;5151298;27;20095;-79
2023/07/01 12:54:52;;;;;;;4.25;2.97;;;;;;;24.78;71.37;97948.44;5152003;27;20099;-80